GMTA

Cherif Al Idrissi Airport

Al Hoceima, Morocco
TAF GMTA 251700Z 2518/2624 36004KT 6000 FEW013 BKN026 BKN100 PROB30 TEMPO 2518/2523 5000 -TSRA OVC010 TEMPO 2606/2612 5000 RA OVC010
Issued Valid From Valid To
Apr-25 @ 17:00 UTC
(an hour ago)
Apr-25 @ 18:00 UTC
(a minute ago)
Apr-27 @ 00:00 UTC
(-1 days ago)
Apr-25 @ 18:00 to Apr-27 @ 00:00
TAF GMTA 251700Z 2518/2624 36004KT 6000 FEW013 BKN026 BKN100
Wind Visibility Clouds
360° at 4 knots 6,003 meters
  • Few at 1,300' AGL
  • Broken at 2,600' AGL
  • Broken at 10,000' AGL
Temporary  (Probability 30%) Apr-25 @ 18:00 to Apr-25 @ 23:00
PROB30 TEMPO 2518/2523 5000 -TSRA OVC010
Visibility Clouds Conditions
5,005 meters
  • Overcast at 1,000' AGL
  • Light Thunderstorm
  • Light Rain
Temporary Apr-26 @ 06:00 to Apr-26 @ 12:00
TEMPO 2606/2612 5000 RA OVC010
Visibility Clouds Conditions
5,005 meters
  • Overcast at 1,000' AGL
  • Rain
TAF GMTA 251700Z 2518/2624 36004KT 6000 FEW013 BKN026 BKN100 PROB30 TEMPO 2518/2523 5000 -TSRA OVC010 TEMPO 2606/2612 5000 RA OVC010
Issued Apr-25 @ 17:00 UTC
(an hour ago)
Valid From Apr-25 @ 18:00 UTC
(a minute ago)
Valid To Apr-27 @ 00:00 UTC
(-1 days ago)
Apr-25 @ 18:00 - Apr-27 @ 00:00
Wind Visibility
360° at 4 knots 6,003 meters
Clouds
  • Few at 1,300' AGL
  • Broken at 2,600' AGL
  • Broken at 10,000' AGL
Probability 30% Temporary Apr-25 @ 18:00 - Apr-25 @ 23:00
Clouds
  • Overcast at 1,000' AGL
Conditions
  • Light Thunderstorm
  • Light Rain
Temporary Apr-26 @ 06:00 - Apr-26 @ 12:00
Clouds
  • Overcast at 1,000' AGL
Conditions
  • Rain